Time;durP1;ratioP1;P1;durP2;ratioP2;P2;SDS_P1;SDS_P2;PMS_P1;PMS_P2;Temp;Humidity;BMP_temperature;BMP_pressure;BME280_temperature;BME280_humidity;BME280_pressure;Samples;Min_cycle;Max_cycle;Signal;HPM_P1;HPM_P2
2023/05/21 00:01:24;;;;;;;17.17;15.43;;;16.60;99.90;;;;;;5073832;28;20503;-51
2023/05/21 00:03:51;;;;;;;17.70;16.10;;;16.70;99.90;;;;;;5055799;28;20498;-49
2023/05/21 00:06:19;;;;;;;16.87;15.03;;;16.80;99.90;;;;;;5073795;28;20444;-51
2023/05/21 00:08:46;;;;;;;16.73;15.23;;;17.30;99.90;;;;;;5073415;28;20430;-51
2023/05/21 00:11:13;;;;;;;17.40;15.70;;;16.90;99.90;;;;;;5073473;28;20450;-52
2023/05/21 00:13:39;;;;;;;16.57;15.00;;;16.80;99.90;;;;;;5073595;28;20409;-52
2023/05/21 00:16:07;;;;;;;19.47;17.37;;;16.80;99.90;;;;;;5073471;28;20442;-51
2023/05/21 00:18:33;;;;;;;18.47;16.53;;;17.00;99.90;;;;;;5072962;28;20444;-50
2023/05/21 00:21:00;;;;;;;18.47;16.60;;;16.60;99.90;;;;;;5073242;28;20521;-52
2023/05/21 00:23:31;;;;;;;18.87;16.10;;;16.70;99.90;;;;;;5073339;28;20434;-51
2023/05/21 00:25:58;;;;;;;17.37;15.67;;;16.80;99.90;;;;;;5073488;28;20445;-51
2023/05/21 00:28:24;;;;;;;18.30;16.60;;;16.70;99.90;;;;;;5072870;28;20982;-52
2023/05/21 00:30:51;;;;;;;19.53;17.53;;;16.90;99.90;;;;;;5073067;28;21019;-51
2023/05/21 00:33:20;;;;;;;19.03;16.60;;;17.10;99.90;;;;;;5073093;28;20929;-52
2023/05/21 00:35:47;;;;;;;17.77;16.13;;;16.90;99.90;;;;;;5073348;28;20449;-51
2023/05/21 00:38:13;;;;;;;17.07;15.47;;;16.40;99.90;;;;;;5054665;28;20448;-50
2023/05/21 00:40:41;;;;;;;17.90;16.23;;;16.60;99.90;;;;;;5073084;28;20449;-52
2023/05/21 00:43:09;;;;;;;17.27;15.67;;;16.30;99.90;;;;;;5055008;28;20867;-51
2023/05/21 00:45:36;;;;;;;19.30;17.50;;;16.90;99.90;;;;;;5054993;28;20456;-51
2023/05/21 00:48:03;;;;;;;19.07;17.00;;;16.50;99.90;;;;;;5055007;28;20454;-52
2023/05/21 00:50:30;;;;;;;17.13;15.60;;;16.60;99.90;;;;;;5054578;28;20477;-52
2023/05/21 00:52:58;;;;;;;18.03;16.23;;;16.60;99.90;;;;;;5054905;28;21045;-52
2023/05/21 00:55:25;;;;;;;18.10;16.30;;;16.60;99.90;;;;;;5055132;28;20450;-52
2023/05/21 00:57:54;;;;;;;18.03;15.80;;;16.60;99.90;;;;;;5073094;28;20779;-49
2023/05/21 01:00:23;;;;;;;18.33;16.63;;;16.40;99.90;;;;;;5071908;28;20536;-51
2023/05/21 01:02:50;;;;;;;18.93;17.00;;;16.70;99.90;;;;;;5054987;28;20444;-51
2023/05/21 01:05:16;;;;;;;17.90;16.00;;;16.70;99.90;;;;;;5072764;28;20411;-50
2023/05/21 01:07:43;;;;;;;16.83;15.20;;;16.50;99.90;;;;;;5072686;28;20405;-51
2023/05/21 01:10:11;;;;;;;19.20;17.40;;;16.10;99.90;;;;;;5071999;28;20543;-50
2023/05/21 01:12:40;;;;;;;18.87;17.17;;;16.40;99.90;;;;;;5054486;28;20430;-51
2023/05/21 01:15:09;;;;;;;17.77;15.97;;;16.60;99.90;;;;;;5054513;28;20549;-51
2023/05/21 01:17:37;;;;;;;18.60;16.80;;;16.40;99.90;;;;;;5072235;28;20435;-51
2023/05/21 01:20:09;;;;;;;19.77;16.97;;;16.80;99.90;;;;;;5053864;28;20474;-50
2023/05/21 01:22:41;;;;;;;21.03;18.83;;;16.20;99.90;;;;;;5072329;28;20441;-51
2023/05/21 01:25:10;;;;;;;19.27;16.90;;;15.70;99.90;;;;;;5054366;28;20450;-50
2023/05/21 01:27:36;;;;;;;19.17;17.27;;;16.40;99.90;;;;;;5072335;28;20443;-50
2023/05/21 01:30:03;;;;;;;18.10;16.30;;;16.70;99.90;;;;;;5071822;28;20423;-50
2023/05/21 01:32:37;;;;;;;18.97;17.20;;;16.50;99.90;;;;;;5054406;28;20452;-52
2023/05/21 01:35:07;;;;;;;18.83;17.10;;;16.50;99.90;;;;;;5054376;28;20981;-51
2023/05/21 01:37:40;;;;;;;20.40;17.10;;;16.20;99.90;;;;;;5072027;28;20437;-51
2023/05/21 01:40:15;;;;;;;19.03;17.13;;;16.30;99.90;;;;;;5071796;28;20465;-50
2023/05/21 01:42:44;;;;;;;20.27;18.47;;;16.60;99.90;;;;;;5072255;28;21012;-51
2023/05/21 01:45:12;;;;;;;20.73;17.77;;;16.40;99.90;;;;;;5054218;28;20445;-51
2023/05/21 01:47:39;;;;;;;20.43;18.53;;;16.30;99.90;;;;;;5072061;28;20403;-53
2023/05/21 01:50:08;;;;;;;20.10;18.40;;;16.20;99.90;;;;;;5071553;28;20784;-50
2023/05/21 01:52:36;;;;;;;19.60;17.70;;;16.60;99.90;;;;;;5053761;28;20456;-51
2023/05/21 01:55:03;;;;;;;23.00;18.10;;;16.10;99.90;;;;;;5071965;28;20498;-51
2023/05/21 01:57:31;;;;;;;22.30;17.90;;;15.80;99.90;;;;;;5053843;28;20468;-50
2023/05/21 01:59:58;;;;;;;20.13;18.13;;;16.10;99.90;;;;;;5053252;28;20514;-50
2023/05/21 02:02:25;;;;;;;21.67;19.40;;;16.50;99.90;;;;;;5071843;28;20422;-50
2023/05/21 02:04:51;;;;;;;19.90;18.03;;;16.50;99.90;;;;;;5053882;28;20430;-51
2023/05/21 02:07:18;;;;;;;22.27;20.10;;;16.40;99.90;;;;;;5054109;28;20799;-51
2023/05/21 02:09:45;;;;;;;21.83;19.83;;;15.80;99.90;;;;;;5071432;28;20492;-51
2023/05/21 02:12:11;;;;;;;27.27;20.67;;;16.40;99.90;;;;;;5072448;28;20442;-50
2023/05/21 02:14:40;;;;;;;25.43;20.43;;;16.00;99.90;;;;;;5075922;28;20438;-51
2023/05/21 02:17:07;;;;;;;22.27;19.87;;;16.00;99.90;;;;;;5058006;28;20950;-51
2023/05/21 02:19:34;;;;;;;21.17;19.23;;;15.90;99.90;;;;;;5057452;28;20861;-51
2023/05/21 02:22:00;;;;;;;22.83;20.63;;;16.10;99.90;;;;;;5075676;28;20484;-50
2023/05/21 02:24:28;;;;;;;23.27;21.00;;;16.00;99.90;;;;;;5057941;28;20866;-51
2023/05/21 02:26:54;;;;;;;23.87;21.60;;;15.90;99.90;;;;;;5075931;28;20444;-51
2023/05/21 02:29:21;;;;;;;22.83;20.53;;;16.30;99.90;;;;;;5075542;28;20924;-52
2023/05/21 02:31:50;;;;;;;24.43;22.23;;;16.00;99.90;;;;;;5075879;28;20513;-51
2023/05/21 02:34:19;;;;;;;23.37;21.27;;;15.90;99.90;;;;;;5076267;28;20397;-51
2023/05/21 02:36:47;;;;;;;25.00;22.40;;;16.20;99.90;;;;;;5075894;28;20446;-52
2023/05/21 02:39:14;;;;;;;27.27;21.60;;;16.20;99.90;;;;;;5075186;28;20432;-51
2023/05/21 02:41:40;;;;;;;25.67;23.00;;;15.90;99.90;;;;;;5057355;28;20988;-51
2023/05/21 02:44:07;;;;;;;25.97;23.50;;;15.80;99.90;;;;;;5057587;28;20417;-52
2023/05/21 02:46:34;;;;;;;25.10;22.67;;;16.50;99.90;;;;;;5057441;28;20533;-51
2023/05/21 02:49:02;;;;;;;26.23;23.57;;;16.20;99.90;;;;;;5075076;28;20488;-51
2023/05/21 02:51:29;;;;;;;23.90;21.60;;;16.10;99.90;;;;;;5057058;28;20492;-51
2023/05/21 02:53:56;;;;;;;29.43;24.63;;;15.90;99.90;;;;;;5057125;28;20433;-50
2023/05/21 02:56:23;;;;;;;26.20;23.90;;;15.90;99.90;;;;;;5057495;28;20818;-52
2023/05/21 02:58:51;;;;;;;24.30;21.80;;;15.80;99.90;;;;;;5056906;28;20465;-50
2023/05/21 03:01:18;;;;;;;27.20;24.47;;;15.90;99.90;;;;;;5056858;28;20459;-52
2023/05/21 03:03:45;;;;;;;30.03;26.30;;;16.30;99.90;;;;;;5057227;28;20487;-52
2023/05/21 03:06:13;;;;;;;25.83;23.43;;;16.10;99.90;;;;;;5056986;28;20420;-51
2023/05/21 03:08:39;;;;;;;27.17;24.37;;;16.00;99.90;;;;;;5056538;28;20450;-51
2023/05/21 03:11:06;;;;;;;26.13;23.33;;;16.10;99.90;;;;;;5057004;28;20440;-52
2023/05/21 03:13:33;;;;;;;25.93;23.50;;;15.90;99.90;;;;;;5056888;28;20480;-50
2023/05/21 03:15:59;;;;;;;27.30;24.70;;;16.10;99.90;;;;;;5056818;28;20529;-52
2023/05/21 03:18:26;;;;;;;26.93;24.37;;;15.80;99.90;;;;;;5056451;28;20457;-51
2023/05/21 03:20:52;;;;;;;25.73;23.23;;;15.50;99.90;;;;;;5074561;28;20483;-51
2023/05/21 03:23:21;;;;;;;29.80;24.40;;;15.90;99.90;;;;;;5056457;28;20430;-52
2023/05/21 03:25:48;;;;;;;29.60;26.57;;;16.20;99.90;;;;;;5056436;28;20451;-51
2023/05/21 03:28:16;;;;;;;28.27;25.43;;;15.80;99.90;;;;;;5056123;28;20467;-51
2023/05/21 03:30:49;;;;;;;26.40;23.67;;;15.90;99.90;;;;;;5056419;28;20440;-52
2023/05/21 03:33:34;;;;;;;27.63;25.03;;;16.10;99.90;;;;;;5074537;28;20980;-52
2023/05/21 03:36:09;;;;;;;27.90;25.17;;;15.80;99.90;;;;;;5056612;28;20423;-51
2023/05/21 03:38:38;;;;;;;28.10;25.10;;;15.90;99.90;;;;;;5055987;28;20952;-51
2023/05/21 03:41:06;;;;;;;29.40;26.43;;;15.90;99.90;;;;;;5056393;28;20471;-51
2023/05/21 03:43:33;;;;;;;27.03;24.43;;;16.10;99.90;;;;;;5056307;28;20450;-51
2023/05/21 03:45:59;;;;;;;28.03;25.40;;;16.50;99.90;;;;;;5056269;28;20614;-51
2023/05/21 03:48:53;;;;;;;26.90;24.33;;;15.50;99.90;;;;;;5055779;28;20436;-52
2023/05/21 03:51:23;;;;;;;28.63;25.93;;;15.90;99.90;;;;;;5055942;28;20989;-50
2023/05/21 03:53:51;;;;;;;27.33;25.00;;;16.30;99.90;;;;;;5073977;28;20854;-50
2023/05/21 03:56:18;;;;;;;27.43;25.03;;;16.10;99.90;;;;;;5056216;28;20807;-51
2023/05/21 03:58:45;;;;;;;27.47;24.60;;;16.00;99.90;;;;;;5055756;28;20930;-50
2023/05/21 04:01:12;;;;;;;28.43;25.63;;;16.70;99.90;;;;;;5055667;28;20567;-49
2023/05/21 04:03:38;;;;;;;28.00;25.30;;;16.70;99.90;;;;;;5073994;28;20408;-51
2023/05/21 04:06:08;;;;;;;28.17;25.40;;;15.90;99.90;;;;;;5056052;28;20525;-50
2023/05/21 04:08:36;;;;;;;27.00;24.33;;;16.50;99.90;;;;;;5073474;28;20522;-51
2023/05/21 04:11:04;;;;;;;28.70;26.20;;;16.50;99.90;;;;;;5055667;28;20453;-50
2023/05/21 04:13:31;;;;;;;27.83;24.93;;;16.60;99.90;;;;;;5055684;28;20457;-51
2023/05/21 04:15:58;;;;;;;26.97;24.50;;;16.70;99.90;;;;;;5073610;28;20442;-50
2023/05/21 04:18:25;;;;;;;29.30;26.43;;;16.50;99.90;;;;;;5073321;28;20421;-51
2023/05/21 04:20:52;;;;;;;30.30;24.23;;;17.00;99.90;;;;;;5055497;28;20488;-51
2023/05/21 04:23:22;;;;;;;28.17;25.30;;;16.80;99.90;;;;;;5055500;28;20447;-51
2023/05/21 04:25:49;;;;;;;25.60;23.00;;;16.80;99.90;;;;;;5055513;28;20450;-51
2023/05/21 04:28:18;;;;;;;27.80;25.20;;;17.00;99.90;;;;;;5054946;28;20430;-50
2023/05/21 04:30:46;;;;;;;26.60;24.10;;;16.90;99.90;;;;;;5055439;28;20481;-51
2023/05/21 04:33:16;;;;;;;27.57;24.77;;;17.20;99.90;;;;;;5055304;28;20512;-51
2023/05/21 04:35:44;;;;;;;26.07;23.53;;;17.50;99.90;;;;;;5054755;28;20440;-51
2023/05/21 04:38:11;;;;;;;24.67;22.37;;;17.60;99.90;;;;;;5072955;28;20455;-51
2023/05/21 04:40:39;;;;;;;25.30;23.00;;;17.10;99.90;;;;;;5055031;28;20871;-51
2023/05/21 04:43:06;;;;;;;26.20;23.60;;;17.50;99.90;;;;;;5073207;28;20431;-51
2023/05/21 04:45:35;;;;;;;25.63;23.20;;;17.30;99.90;;;;;;5055089;28;20449;-51
2023/05/21 04:48:02;;;;;;;25.93;23.23;;;17.70;99.90;;;;;;5055055;28;20512;-51
2023/05/21 04:50:30;;;;;;;26.50;24.00;;;17.30;99.90;;;;;;5054911;28;20455;-50
2023/05/21 04:52:57;;;;;;;25.13;22.80;;;17.40;99.90;;;;;;5072932;28;20435;-50
2023/05/21 04:55:24;;;;;;;23.77;21.57;;;18.30;99.90;;;;;;5054787;28;20456;-50
2023/05/21 04:57:51;;;;;;;24.93;22.40;;;18.10;99.90;;;;;;5072760;28;20546;-51
2023/05/21 05:00:18;;;;;;;24.30;22.10;;;18.10;99.90;;;;;;5054829;28;20473;-53
2023/05/21 05:02:47;;;;;;;24.47;22.07;;;18.30;99.90;;;;;;5054849;28;20919;-50
2023/05/21 05:05:14;;;;;;;23.03;20.87;;;18.30;99.90;;;;;;5054727;28;20486;-50
2023/05/21 05:07:40;;;;;;;23.50;21.17;;;18.60;99.90;;;;;;5054873;28;20453;-50
2023/05/21 05:10:08;;;;;;;24.00;21.80;;;18.10;99.90;;;;;;5053969;28;20487;-51
2023/05/21 05:12:34;;;;;;;24.27;22.10;;;18.40;99.90;;;;;;5072810;28;20435;-51
2023/05/21 05:15:01;;;;;;;24.80;22.20;;;18.80;99.90;;;;;;5054498;28;20453;-51
2023/05/21 05:17:28;;;;;;;24.13;21.93;;;18.60;99.90;;;;;;5054581;28;20439;-51
2023/05/21 05:19:56;;;;;;;28.30;21.60;;;18.50;99.90;;;;;;5071924;28;20460;-51
2023/05/21 05:22:23;;;;;;;23.60;21.40;;;18.50;99.90;;;;;;5054379;28;20473;-51
2023/05/21 05:24:49;;;;;;;22.30;20.20;;;18.50;99.90;;;;;;5054366;28;20544;-52
2023/05/21 05:27:16;;;;;;;23.87;21.53;;;18.90;99.90;;;;;;5054312;28;20464;-50
2023/05/21 05:29:44;;;;;;;22.83;20.40;;;19.20;99.90;;;;;;5053738;28;20497;-52
2023/05/21 05:32:10;;;;;;;23.03;20.73;;;18.90;99.90;;;;;;5053878;28;20954;-52
2023/05/21 05:34:37;;;;;;;25.10;22.80;;;18.60;99.90;;;;;;5054024;28;20464;-50
2023/05/21 05:37:06;;;;;;;24.37;21.90;;;19.30;99.90;;;;;;5054019;28;20453;-50
2023/05/21 05:39:33;;;;;;;23.90;21.77;;;19.30;99.90;;;;;;5053606;28;20851;-51
2023/05/21 05:42:00;;;;;;;22.43;20.33;;;19.50;99.90;;;;;;5054189;28;21196;-51
2023/05/21 05:44:27;;;;;;;22.40;20.40;;;19.20;99.90;;;;;;5053865;28;20537;-51
2023/05/21 05:46:53;;;;;;;23.03;20.97;;;19.50;99.90;;;;;;5053110;28;20478;-52
2023/05/21 05:49:20;;;;;;;23.57;21.30;;;19.80;99.90;;;;;;5053330;28;20446;-51
2023/05/21 05:51:47;;;;;;;24.57;22.27;;;19.70;99.90;;;;;;5054585;28;20795;-49
2023/05/21 05:54:15;;;;;;;22.80;20.40;;;19.70;99.90;;;;;;5053840;28;20542;-49
2023/05/21 05:56:41;;;;;;;22.67;20.47;;;19.70;99.90;;;;;;5071990;28;20435;-49
2023/05/21 05:59:08;;;;;;;23.13;20.97;;;19.60;99.90;;;;;;5053618;28;20441;-48
2023/05/21 06:01:37;;;;;;;22.70;20.47;;;19.60;99.90;;;;;;5053868;28;20474;-49
2023/05/21 06:04:04;;;;;;;20.97;18.97;;;19.80;99.90;;;;;;5054021;28;20455;-49
2023/05/21 06:06:33;;;;;;;21.20;19.07;;;19.90;99.90;;;;;;5053818;28;20446;-50
2023/05/21 06:09:00;;;;;;;21.47;19.23;;;20.00;99.90;;;;;;5053290;28;20454;-49
2023/05/21 06:11:28;;;;;;;22.20;20.20;;;20.00;99.90;;;;;;5053592;28;20521;-48
2023/05/21 06:13:55;;;;;;;20.60;18.80;;;20.20;99.90;;;;;;5053645;28;20442;-50
2023/05/21 06:16:22;;;;;;;20.60;18.77;;;20.10;99.90;;;;;;5071571;28;20458;-48
2023/05/21 06:18:48;;;;;;;21.13;19.00;;;20.30;99.90;;;;;;5071173;28;20499;-48
2023/05/21 06:21:15;;;;;;;21.10;18.97;;;20.50;99.90;;;;;;5053428;28;20625;-49
2023/05/21 06:23:41;;;;;;;19.47;17.73;;;20.50;99.90;;;;;;5053451;28;20545;-49
2023/05/21 06:26:09;;;;;;;20.07;18.30;;;20.80;99.90;;;;;;5053394;28;20555;-48
2023/05/21 06:28:37;;;;;;;20.87;19.00;;;20.60;99.90;;;;;;5053063;28;20479;-49
2023/05/21 06:31:04;;;;;;;21.17;19.17;;;20.60;99.90;;;;;;5053232;28;20988;-48
2023/05/21 06:33:32;;;;;;;20.53;18.73;;;20.70;99.90;;;;;;5053550;28;20453;-49
2023/05/21 06:36:00;;;;;;;22.20;19.37;;;20.70;99.90;;;;;;5053718;28;20888;-48
2023/05/21 06:38:27;;;;;;;21.17;19.07;;;20.70;99.90;;;;;;5053303;28;20483;-49
2023/05/21 06:40:53;;;;;;;18.63;16.93;;;20.70;99.90;;;;;;5071565;28;20456;-48
2023/05/21 06:43:40;;;;;;;20.63;18.60;;;20.70;99.90;;;;;;5072019;28;20931;-50
2023/05/21 06:46:27;;;;;;;20.17;18.27;;;20.70;99.90;;;;;;5030006;28;20850;-49
2023/05/21 06:48:53;;;;;;;19.80;17.67;;;20.90;99.90;;;;;;5053100;28;20527;-49
2023/05/21 06:51:20;;;;;;;20.50;18.57;;;20.90;99.90;;;;;;5071418;28;20474;-49
2023/05/21 06:53:47;;;;;;;19.90;18.30;;;21.00;99.90;;;;;;5053651;28;20449;-50
2023/05/21 06:56:13;;;;;;;18.93;17.23;;;21.00;99.90;;;;;;5053351;28;20449;-48
2023/05/21 06:58:43;;;;;;;18.30;16.60;;;21.00;99.90;;;;;;5054495;28;20452;-50
2023/05/21 07:01:11;;;;;;;18.80;17.03;;;21.10;99.90;;;;;;5057205;28;20472;-50
2023/05/21 07:03:38;;;;;;;18.30;16.70;;;21.20;99.90;;;;;;5075185;28;20496;-49
2023/05/21 07:06:05;;;;;;;18.77;17.07;;;21.20;99.90;;;;;;5075166;28;20448;-48
2023/05/21 07:08:31;;;;;;;19.17;17.20;;;21.30;99.90;;;;;;5057035;28;20449;-48
2023/05/21 07:10:59;;;;;;;17.50;15.90;;;21.50;99.90;;;;;;5056954;28;20472;-49
2023/05/21 07:13:26;;;;;;;18.73;16.93;;;21.50;99.90;;;;;;5057005;28;20448;-49
2023/05/21 07:15:54;;;;;;;16.43;14.93;;;21.30;99.90;;;;;;5057110;28;20458;-49
2023/05/21 07:18:21;;;;;;;18.97;17.07;;;21.60;99.90;;;;;;5074209;28;20433;-49
2023/05/21 07:20:47;;;;;;;17.80;16.20;;;21.60;99.90;;;;;;5056541;28;20484;-49
2023/05/21 07:23:15;;;;;;;17.17;15.40;;;21.60;99.90;;;;;;5056428;28;20476;-49
2023/05/21 07:25:42;;;;;;;18.17;16.50;;;21.80;99.90;;;;;;5056657;28;20441;-48
2023/05/21 07:28:09;;;;;;;16.97;15.37;;;21.60;99.90;;;;;;5056143;28;20469;-51
2023/05/21 07:30:36;;;;;;;17.30;15.70;;;22.00;99.90;;;;;;5056326;28;20559;-47
2023/05/21 07:33:07;;;;;;;17.53;15.83;;;22.20;99.90;;;;;;5056573;28;20548;-48
2023/05/21 07:35:34;;;;;;;16.37;14.77;;;22.20;99.90;;;;;;5056207;28;20425;-48
2023/05/21 07:38:02;;;;;;;17.00;15.40;;;22.20;99.90;;;;;;5056119;28;20446;-49
2023/05/21 07:40:29;;;;;;;18.20;14.57;;;22.40;99.90;;;;;;5055888;28;20472;-48
2023/05/21 07:42:55;;;;;;;16.70;15.20;;;22.50;99.90;;;;;;5056054;28;20487;-50
2023/05/21 07:45:25;;;;;;;16.37;14.93;;;22.50;99.90;;;;;;5056019;28;20477;-50
2023/05/21 07:47:52;;;;;;;17.90;16.10;;;22.50;99.90;;;;;;5074051;28;20967;-48
2023/05/21 07:50:21;;;;;;;15.73;14.20;;;22.50;99.90;;;;;;5055664;28;20510;-48
2023/05/21 07:52:47;;;;;;;16.10;14.60;;;22.70;99.70;;;;;;5055898;28;20503;-50
2023/05/21 07:55:15;;;;;;;16.13;14.63;;;22.70;99.60;;;;;;5055589;28;20464;-49
2023/05/21 07:57:44;;;;;;;15.70;14.10;;;22.70;99.50;;;;;;5056045;28;20460;-48
2023/05/21 08:00:14;;;;;;;15.53;14.20;;;22.70;99.40;;;;;;5055829;28;20469;-49
2023/05/21 08:02:48;;;;;;;15.57;14.10;;;22.70;99.40;;;;;;5056035;28;20501;-49
2023/05/21 08:05:16;;;;;;;16.43;14.93;;;22.70;99.30;;;;;;5056005;28;20551;-49
2023/05/21 08:07:45;;;;;;;15.43;14.10;;;22.80;99.40;;;;;;5055938;28;20509;-49
2023/05/21 08:10:11;;;;;;;15.17;13.77;;;22.80;99.30;;;;;;5054318;28;20516;-49
2023/05/21 08:12:39;;;;;;;15.23;13.80;;;22.60;99.30;;;;;;5055810;28;20443;-49
2023/05/21 08:15:07;;;;;;;14.83;13.50;;;22.70;99.10;;;;;;5055615;28;20524;-49
2023/05/21 08:17:39;;;;;;;14.47;13.03;;;22.70;99.10;;;;;;5055363;28;20946;-49
2023/05/21 08:20:07;;;;;;;14.57;13.07;;;22.80;99.00;;;;;;5054860;28;20511;-49
2023/05/21 08:22:36;;;;;;;16.13;14.00;;;22.80;98.80;;;;;;5055399;28;20910;-49
2023/05/21 08:25:06;;;;;;;13.23;12.23;;;22.80;98.80;;;;;;5073400;28;20430;-49
2023/05/21 08:27:32;;;;;;;14.00;12.63;;;22.80;98.60;;;;;;5073098;28;20453;-49
2023/05/21 08:29:59;;;;;;;13.63;12.37;;;22.80;98.40;;;;;;5054698;28;20467;-48
2023/05/21 08:32:26;;;;;;;13.10;11.90;;;22.80;98.40;;;;;;5055412;28;20528;-52
2023/05/21 08:34:54;;;;;;;13.33;11.97;;;22.70;98.10;;;;;;5054886;28;20444;-49
2023/05/21 08:37:43;;;;;;;13.90;12.60;;;22.80;98.20;;;;;;5054554;28;20458;-49
2023/05/21 08:40:24;;;;;;;14.17;12.40;;;22.90;98.30;;;;;;5054658;28;20467;-50
2023/05/21 08:42:51;;;;;;;14.13;12.73;;;22.80;98.10;;;;;;5055054;28;20493;-49
2023/05/21 08:45:23;;;;;;;13.83;12.63;;;22.80;98.10;;;;;;5055131;28;20452;-49
2023/05/21 08:47:55;;;;;;;13.33;11.40;;;22.90;98.10;;;;;;5054844;28;20580;-49
2023/05/21 08:50:26;;;;;;;14.00;12.57;;;22.70;97.90;;;;;;5054171;28;20482;-51
2023/05/21 08:52:55;;;;;;;13.23;11.60;;;22.80;97.80;;;;;;5054574;28;20455;-50
2023/05/21 08:55:23;;;;;;;13.90;12.37;;;23.00;97.90;;;;;;5072548;28;20427;-49
2023/05/21 08:57:53;;;;;;;13.67;12.27;;;23.10;97.90;;;;;;5054504;28;20459;-49
2023/05/21 09:00:20;;;;;;;12.90;11.60;;;23.10;97.70;;;;;;5054387;28;20464;-49
2023/05/21 09:02:47;;;;;;;14.20;12.80;;;23.20;97.70;;;;;;5054594;28;20471;-49
2023/05/21 09:05:18;;;;;;;13.67;12.37;;;23.20;97.50;;;;;;5054170;28;20458;-50
2023/05/21 09:07:50;;;;;;;11.90;10.70;;;23.30;97.30;;;;;;5054261;28;20452;-49
2023/05/21 09:10:39;;;;;;;12.70;11.57;;;23.40;96.90;;;;;;5054132;28;20490;-48
2023/05/21 09:13:06;;;;;;;11.60;10.40;;;23.40;96.70;;;;;;5072332;28;20557;-48
2023/05/21 09:15:33;;;;;;;12.47;11.27;;;23.40;96.60;;;;;;5053886;28;20447;-49
2023/05/21 09:18:00;;;;;;;12.40;11.10;;;23.50;96.60;;;;;;5054181;28;20842;-49
2023/05/21 09:20:42;;;;;;;12.07;10.90;;;23.60;96.30;;;;;;5054173;28;20472;-49
2023/05/21 09:23:11;;;;;;;11.83;10.73;;;23.60;96.30;;;;;;5054035;28;20895;-48
2023/05/21 09:25:40;;;;;;;20.10;11.40;;;23.70;96.20;;;;;;5054022;28;20445;-51
2023/05/21 09:28:12;;;;;;;10.57;9.57;;;23.70;95.90;;;;;;5053513;28;20538;-49
2023/05/21 09:30:45;;;;;;;11.33;10.37;;;23.70;95.60;;;;;;5053849;28;20471;-50
2023/05/21 09:33:12;;;;;;;9.67;8.77;;;23.70;95.30;;;;;;5053815;28;20464;-51
2023/05/21 09:35:45;;;;;;;12.40;11.17;;;23.80;95.60;;;;;;5053755;28;20453;-49
2023/05/21 09:38:12;;;;;;;12.67;11.43;;;23.90;95.20;;;;;;5053850;28;20450;-50
2023/05/21 09:40:44;;;;;;;10.70;9.70;;;24.00;95.30;;;;;;5072049;28;20449;-49
2023/05/21 09:43:13;;;;;;;12.07;10.57;;;24.10;95.00;;;;;;5053987;28;20492;-51
2023/05/21 09:45:51;;;;;;;12.03;9.80;;;23.90;94.80;;;;;;5053871;28;20445;-51
2023/05/21 09:48:18;;;;;;;11.80;10.17;;;24.30;94.50;;;;;;5071418;28;20483;-50
2023/05/21 09:50:44;;;;;;;10.93;9.83;;;24.30;94.50;;;;;;5053528;28;20480;-51
2023/05/21 09:53:12;;;;;;;9.97;9.07;;;24.30;94.40;;;;;;5071699;28;20484;-50
2023/05/21 09:55:40;;;;;;;10.77;9.67;;;24.40;94.20;;;;;;5071354;28;20472;-51
2023/05/21 09:58:07;;;;;;;11.93;8.90;;;24.40;94.00;;;;;;5070939;28;20562;-53
2023/05/21 10:00:34;;;;;;;10.70;9.60;;;24.50;93.90;;;;;;5071472;28;20453;-52
2023/05/21 10:03:03;;;;;;;9.77;8.90;;;24.20;93.30;;;;;;5071539;28;20487;-50
2023/05/21 10:05:30;;;;;;;10.23;9.23;;;24.50;93.40;;;;;;5071785;28;20426;-50
2023/05/21 10:08:00;;;;;;;11.33;10.07;;;24.60;93.30;;;;;;5053058;28;20549;-51
2023/05/21 10:10:29;;;;;;;12.17;8.70;;;24.60;93.40;;;;;;5070690;28;20499;-49
2023/05/21 10:13:00;;;;;;;12.63;9.17;;;24.50;93.50;;;;;;5071359;28;20524;-51
2023/05/21 10:15:30;;;;;;;10.77;9.67;;;24.60;93.40;;;;;;5071301;28;20441;-51
2023/05/21 10:17:58;;;;;;;9.87;9.00;;;24.70;93.50;;;;;;5053100;28;20857;-52
2023/05/21 10:20:25;;;;;;;11.43;9.20;;;24.70;93.40;;;;;;5071028;28;20857;-49
2023/05/21 10:22:53;;;;;;;9.07;8.30;;;24.70;93.50;;;;;;5071377;28;20479;-49
2023/05/21 10:25:20;;;;;;;10.97;9.90;;;24.70;92.70;;;;;;5053421;28;20499;-49
2023/05/21 10:27:48;;;;;;;12.53;9.37;;;24.70;92.50;;;;;;5071276;28;20961;-50
2023/05/21 10:30:17;;;;;;;9.23;7.93;;;24.70;92.70;;;;;;5070497;28;20447;-48
2023/05/21 10:32:46;;;;;;;9.57;8.60;;;24.70;92.70;;;;;;5071184;28;20434;-49
2023/05/21 10:35:16;;;;;;;11.33;8.70;;;24.40;92.60;;;;;;5074830;28;20434;-50
2023/05/21 10:37:44;;;;;;;9.40;8.60;;;24.70;93.10;;;;;;5075001;28;20930;-50
2023/05/21 10:40:12;;;;;;;10.90;9.80;;;24.80;92.70;;;;;;5074520;28;20458;-50
2023/05/21 10:43:04;;;;;;;10.50;9.50;;;24.90;92.70;;;;;;5075113;28;20425;-49
2023/05/21 10:45:46;;;;;;;10.70;9.80;;;25.00;92.60;;;;;;5075163;28;20440;-49
2023/05/21 10:48:36;;;;;;;11.53;8.10;;;25.00;92.20;;;;;;5074796;28;20437;-50
2023/05/21 10:51:16;;;;;;;9.53;8.43;;;25.00;92.00;;;;;;5074760;28;20521;-50
2023/05/21 10:53:55;;;;;;;9.50;8.67;;;25.10;91.80;;;;;;5074462;28;20435;-52
2023/05/21 10:56:24;;;;;;;8.97;8.17;;;25.00;91.60;;;;;;5074981;28;20436;-49
2023/05/21 10:59:14;;;;;;;10.03;8.30;;;25.00;91.60;;;;;;5074308;28;20523;-47
2023/05/21 11:01:42;;;;;;;9.03;8.13;;;25.20;90.70;;;;;;5074496;28;20521;-47
2023/05/21 11:04:11;;;;;;;11.20;8.13;;;24.80;90.30;;;;;;5074600;28;20966;-52
2023/05/21 11:06:37;;;;;;;9.10;8.30;;;25.30;90.00;;;;;;5074307;28;20433;-49
2023/05/21 11:09:13;;;;;;;8.50;7.60;;;25.40;89.10;;;;;;5073967;28;20438;-50
2023/05/21 11:11:42;;;;;;;13.90;8.63;;;25.50;87.80;;;;;;5074330;28;20830;-49
2023/05/21 11:14:37;;;;;;;8.67;7.70;;;25.60;87.50;;;;;;5074417;28;20838;-48
2023/05/21 11:17:11;;;;;;;9.20;7.50;;;25.50;85.40;;;;;;5074503;28;20846;-49
2023/05/21 11:19:40;;;;;;;8.20;7.40;;;25.70;85.50;;;;;;5073702;28;20490;-48
2023/05/21 11:22:08;;;;;;;8.33;7.53;;;25.70;85.60;;;;;;5074161;28;20437;-50
2023/05/21 11:24:38;;;;;;;8.00;7.20;;;25.70;85.50;;;;;;5074331;28;20527;-49
2023/05/21 11:27:05;;;;;;;8.13;7.33;;;25.80;85.30;;;;;;5074115;28;20953;-50
2023/05/21 11:29:40;;;;;;;7.43;6.83;;;25.70;85.30;;;;;;5073461;28;20464;-49
2023/05/21 11:32:09;;;;;;;7.03;6.43;;;26.00;83.90;;;;;;5073907;28;20434;-50
2023/05/21 11:34:44;;;;;;;9.03;7.60;;;26.10;82.30;;;;;;5074433;28;20907;-49
2023/05/21 11:37:26;;;;;;;7.30;6.60;;;26.20;81.80;;;;;;5073809;28;20433;-49
2023/05/21 11:39:53;;;;;;;15.27;6.93;;;26.50;81.20;;;;;;5073349;28;20453;-50
2023/05/21 11:42:34;;;;;;;7.77;7.00;;;26.30;80.90;;;;;;5073972;28;20441;-50
2023/05/21 11:45:02;;;;;;;9.90;6.60;;;26.40;79.30;;;;;;5072662;28;20488;-50
2023/05/21 11:47:31;;;;;;;8.13;7.20;;;26.40;79.90;;;;;;5073787;28;20997;-50
2023/05/21 11:50:00;;;;;;;9.03;7.50;;;26.50;78.90;;;;;;5073737;28;20477;-48
2023/05/21 11:52:28;;;;;;;6.97;6.37;;;26.60;78.60;;;;;;5073924;28;20525;-48
2023/05/21 11:54:56;;;;;;;6.53;5.93;;;26.50;77.70;;;;;;5073550;28;20433;-51
2023/05/21 11:57:25;;;;;;;13.47;7.30;;;26.50;78.20;;;;;;5073758;28;20443;-49
2023/05/21 11:59:52;;;;;;;7.30;6.70;;;26.30;76.90;;;;;;5073149;28;20461;-49
2023/05/21 12:02:20;;;;;;;7.13;6.43;;;26.40;77.20;;;;;;5073805;28;20873;-50
2023/05/21 12:04:50;;;;;;;7.80;7.00;;;26.40;76.90;;;;;;5073096;28;20991;-51
2023/05/21 12:07:18;;;;;;;7.43;6.10;;;26.40;76.80;;;;;;5073505;28;20434;-49
2023/05/21 12:09:46;;;;;;;7.27;6.57;;;26.50;76.40;;;;;;5054874;28;20527;-49
2023/05/21 12:12:14;;;;;;;7.73;6.93;;;26.60;76.20;;;;;;5073230;28;20430;-49
2023/05/21 12:14:44;;;;;;;7.13;6.53;;;26.60;75.30;;;;;;5072901;28;20431;-50
2023/05/21 12:17:12;;;;;;;7.77;7.07;;;26.60;75.30;;;;;;5073069;28;20469;-50
2023/05/21 12:19:39;;;;;;;8.10;7.30;;;26.60;75.10;;;;;;5072749;28;20493;-50
2023/05/21 12:22:08;;;;;;;10.40;8.20;;;26.70;74.60;;;;;;5072463;28;20483;-51
2023/05/21 12:24:36;;;;;;;8.93;6.70;;;26.70;74.00;;;;;;5072972;28;20496;-49
2023/05/21 12:27:08;;;;;;;10.10;6.07;;;26.70;73.60;;;;;;5073184;28;20922;-49
2023/05/21 12:29:36;;;;;;;7.50;6.50;;;26.70;73.50;;;;;;5072345;28;20482;-50
2023/05/21 12:32:07;;;;;;;12.43;6.83;;;26.70;73.40;;;;;;5073062;28;20451;-50
2023/05/21 12:34:38;;;;;;;7.30;6.50;;;26.70;72.60;;;;;;5072522;28;20434;-51
2023/05/21 12:37:07;;;;;;;6.93;6.27;;;26.70;72.90;;;;;;5073182;28;20934;-49
2023/05/21 12:39:37;;;;;;;7.33;6.60;;;26.70;72.90;;;;;;5072478;28;20456;-49